createdAt,value
2018-10-07T00:02:03.531Z,13.08
2018-10-07T00:04:32.387Z,13.21
2018-10-07T00:07:01.256Z,13.11
2018-10-07T00:09:30.113Z,13.07
2018-10-07T00:11:58.955Z,13.03
2018-10-07T00:14:27.793Z,13.00
2018-10-07T00:16:56.642Z,12.98
2018-10-07T00:19:25.483Z,12.99
2018-10-07T00:21:54.435Z,12.95
2018-10-07T00:24:23.307Z,12.97
2018-10-07T00:26:52.157Z,12.93
2018-10-07T00:29:21.035Z,12.91
2018-10-07T00:31:54.896Z,12.91
2018-10-07T00:34:23.762Z,13.19
2018-10-07T00:36:52.607Z,13.05
2018-10-07T00:39:21.461Z,12.92
2018-10-07T00:41:50.344Z,12.85
2018-10-07T00:44:19.211Z,12.83
2018-10-07T00:46:48.055Z,13.09
2018-10-07T00:49:17.011Z,13.17
2018-10-07T00:51:45.899Z,13.02
2018-10-07T00:54:14.778Z,12.91
2018-10-07T00:56:43.669Z,12.89
2018-10-07T00:59:12.550Z,12.89
2018-10-07T01:01:41.415Z,13.07
2018-10-07T01:04:10.254Z,13.03
2018-10-07T01:06:39.122Z,12.99
2018-10-07T01:09:10.327Z,12.98
2018-10-07T01:11:39.596Z,13.00
2018-10-07T01:14:08.611Z,13.01
2018-10-07T01:16:37.458Z,13.05
2018-10-07T01:19:06.386Z,13.11
2018-10-07T01:21:35.367Z,13.18
2018-10-07T01:24:04.240Z,13.17
2018-10-07T01:26:33.081Z,13.18
2018-10-07T01:29:01.966Z,13.19
2018-10-07T01:31:30.827Z,13.20
2018-10-07T01:33:59.676Z,13.25
2018-10-07T01:36:28.570Z,13.24
2018-10-07T01:38:57.420Z,13.15
2018-10-07T01:41:26.243Z,13.06
2018-10-07T01:43:55.111Z,13.05
2018-10-07T01:46:23.943Z,13.03
2018-10-07T01:48:52.814Z,12.99
2018-10-07T01:51:21.659Z,13.02
2018-10-07T01:53:50.536Z,12.97
2018-10-07T01:56:19.390Z,12.94
2018-10-07T01:58:48.215Z,12.94
2018-10-07T02:01:17.047Z,12.97
2018-10-07T02:03:45.880Z,13.23
2018-10-07T02:06:14.780Z,13.09
2018-10-07T02:08:43.619Z,12.98
2018-10-07T02:11:12.462Z,12.93
2018-10-07T02:13:41.367Z,12.89
2018-10-07T02:16:10.210Z,12.87
2018-10-07T02:18:39.060Z,12.86
2018-10-07T02:21:08.118Z,12.85
2018-10-07T02:23:36.967Z,12.81
2018-10-07T02:26:05.851Z,12.81
2018-10-07T02:28:34.667Z,12.77
2018-10-07T02:31:03.508Z,12.76
2018-10-07T02:33:32.364Z,12.74
2018-10-07T02:36:01.244Z,12.72
2018-10-07T02:38:30.539Z,12.73
2018-10-07T02:40:59.471Z,12.71
2018-10-07T02:43:28.319Z,12.73
2018-10-07T02:45:57.192Z,12.71
2018-10-07T02:48:26.063Z,12.77
2018-10-07T02:50:54.976Z,12.79
2018-10-07T02:53:24.029Z,12.74
2018-10-07T02:55:52.954Z,12.71
2018-10-07T02:58:21.935Z,12.68
2018-10-07T03:00:50.863Z,12.67
2018-10-07T03:03:19.723Z,12.60
2018-10-07T03:05:48.622Z,12.56
2018-10-07T03:08:17.492Z,12.52
2018-10-07T03:10:46.336Z,12.50
2018-10-07T03:13:15.179Z,12.47
2018-10-07T03:15:44.017Z,12.48
2018-10-07T03:18:12.879Z,12.47
2018-10-07T03:20:41.728Z,12.54
2018-10-07T03:23:10.563Z,12.48
2018-10-07T03:25:39.694Z,12.41
2018-10-07T03:28:08.548Z,12.43
2018-10-07T03:30:37.381Z,12.40
2018-10-07T03:33:06.262Z,12.40
2018-10-07T03:35:35.104Z,12.37
2018-10-07T03:38:03.950Z,12.33
2018-10-07T03:40:32.779Z,12.31
2018-10-07T03:43:01.607Z,12.28
2018-10-07T03:45:30.452Z,12.37
2018-10-07T03:47:59.291Z,12.34
2018-10-07T03:50:28.119Z,12.27
2018-10-07T03:52:56.931Z,12.19
2018-10-07T03:55:25.764Z,12.17
2018-10-07T03:57:54.582Z,12.13
2018-10-07T04:00:23.526Z,12.14
2018-10-07T04:02:52.357Z,12.10
2018-10-07T04:05:21.237Z,12.08
2018-10-07T04:07:50.111Z,12.06
2018-10-07T04:10:18.932Z,12.04
2018-10-07T04:12:47.762Z,12.01
2018-10-07T04:15:16.634Z,11.98
2018-10-07T04:17:45.499Z,11.95
2018-10-07T04:20:14.311Z,11.95
2018-10-07T04:22:43.183Z,11.90
2018-10-07T04:25:12.007Z,11.86
2018-10-07T04:27:40.855Z,11.79
2018-10-07T04:30:09.737Z,11.77
2018-10-07T04:32:38.959Z,11.76
2018-10-07T04:35:07.809Z,11.68
2018-10-07T04:37:36.651Z,11.64
2018-10-07T04:40:05.561Z,11.61
2018-10-07T04:42:34.412Z,11.64
2018-10-07T04:45:03.235Z,11.58
2018-10-07T04:47:32.077Z,11.54
2018-10-07T04:50:00.902Z,11.48
2018-10-07T04:52:29.743Z,11.48
2018-10-07T04:54:58.572Z,11.49
2018-10-07T04:57:27.387Z,11.43
2018-10-07T04:59:56.223Z,11.40
2018-10-07T05:02:25.066Z,11.40
2018-10-07T05:04:53.953Z,11.38
2018-10-07T05:07:22.959Z,11.38
2018-10-07T05:10:01.615Z,11.39
2018-10-07T05:12:30.623Z,11.41
2018-10-07T05:14:59.542Z,11.46
2018-10-07T05:17:28.495Z,11.50
2018-10-07T05:19:57.383Z,11.48
2018-10-07T05:22:26.249Z,11.47
2018-10-07T05:24:55.102Z,11.48
2018-10-07T05:27:24.006Z,11.48
2018-10-07T05:29:52.854Z,11.53
2018-10-07T05:32:21.720Z,11.55
2018-10-07T05:34:50.555Z,11.53
2018-10-07T05:37:19.374Z,11.51
2018-10-07T05:39:48.198Z,11.47
2018-10-07T05:42:17.020Z,11.49
2018-10-07T05:44:45.901Z,11.48
2018-10-07T05:47:14.732Z,11.41
2018-10-07T05:49:43.571Z,11.39
2018-10-07T05:52:12.404Z,11.36
2018-10-07T05:54:41.354Z,11.34
2018-10-07T05:57:10.206Z,11.34
2018-10-07T05:59:39.175Z,11.41
2018-10-07T06:02:08.206Z,11.43
2018-10-07T06:04:42.634Z,11.49
2018-10-07T06:07:11.544Z,11.57
2018-10-07T06:09:40.444Z,11.62
2018-10-07T06:12:09.359Z,11.68
2018-10-07T06:14:49.304Z,11.79
2018-10-07T06:17:18.155Z,11.85
2018-10-07T06:19:47.042Z,11.92
2018-10-07T06:22:15.951Z,11.97
2018-10-07T06:24:44.804Z,12.02
2018-10-07T06:27:13.669Z,12.11
2018-10-07T06:29:42.612Z,12.18
2018-10-07T06:32:11.501Z,12.28
2018-10-07T06:34:40.339Z,12.64
2018-10-07T06:37:09.259Z,13.12
2018-10-07T06:39:38.099Z,13.37
2018-10-07T06:42:06.968Z,13.48
2018-10-07T06:44:35.830Z,13.48
2018-10-07T06:47:04.807Z,13.35
2018-10-07T06:49:33.663Z,13.33
2018-10-07T06:52:02.559Z,13.39
2018-10-07T06:54:31.448Z,13.34
2018-10-07T06:57:00.278Z,13.33
2018-10-07T06:59:29.561Z,13.38
2018-10-07T07:01:58.479Z,13.48
2018-10-07T07:04:27.697Z,13.50
2018-10-07T07:06:56.540Z,13.58
2018-10-07T07:09:25.371Z,13.63
2018-10-07T07:11:54.196Z,13.67
2018-10-07T07:14:23.054Z,13.65
2018-10-07T07:16:51.879Z,13.59
2018-10-07T07:19:20.739Z,13.55
2018-10-07T07:21:49.573Z,13.59
2018-10-07T07:24:18.447Z,13.62
2018-10-07T07:26:47.318Z,13.70
2018-10-07T07:29:16.144Z,13.70
2018-10-07T07:31:45.010Z,13.69
2018-10-07T07:34:13.860Z,13.78
2018-10-07T07:36:42.784Z,13.89
2018-10-07T07:39:11.603Z,14.01
2018-10-07T07:41:40.434Z,14.19
2018-10-07T07:44:09.290Z,14.49
2018-10-07T07:46:38.114Z,14.88
2018-10-07T07:49:06.985Z,15.17
2018-10-07T07:51:35.845Z,15.41
2018-10-07T07:54:04.803Z,15.76
2018-10-07T07:56:33.628Z,15.82
2018-10-07T07:59:02.483Z,16.32
2018-10-07T08:01:31.337Z,16.76
2018-10-07T08:04:00.183Z,16.96
2018-10-07T08:06:28.999Z,17.39
2018-10-07T08:08:58.000Z,17.90
2018-10-07T08:11:26.698Z,18.35
2018-10-07T08:13:55.527Z,18.15
2018-10-07T08:16:24.362Z,18.42
2018-10-07T08:18:53.180Z,18.43
2018-10-07T08:21:22.003Z,18.54
2018-10-07T08:23:50.879Z,18.57
2018-10-07T08:26:19.671Z,18.70
2018-10-07T08:28:48.510Z,18.48
2018-10-07T08:31:17.371Z,18.21
2018-10-07T08:33:46.205Z,18.31
2018-10-07T08:36:15.059Z,18.37
2018-10-07T08:38:43.890Z,18.69
2018-10-07T08:41:12.759Z,18.66
2018-10-07T08:43:41.570Z,18.54
2018-10-07T08:46:10.405Z,18.49
2018-10-07T08:48:39.255Z,18.51
2018-10-07T08:51:08.127Z,18.64
2018-10-07T08:53:36.939Z,18.85
2018-10-07T08:56:05.925Z,19.00
2018-10-07T08:58:34.707Z,18.87
2018-10-07T09:01:03.635Z,18.93
2018-10-07T09:03:32.475Z,19.07
2018-10-07T09:06:01.311Z,19.18
2018-10-07T09:08:30.190Z,19.07
2018-10-07T09:10:59.050Z,18.83
2018-10-07T09:13:27.899Z,18.64
2018-10-07T09:15:56.748Z,18.65
2018-10-07T09:18:25.573Z,18.74
2018-10-07T09:20:54.434Z,18.91
2018-10-07T09:23:23.284Z,19.09
2018-10-07T09:25:52.119Z,19.47
2018-10-07T09:28:21.060Z,20.21
2018-10-07T09:30:49.938Z,20.06
2018-10-07T09:33:18.783Z,20.13
2018-10-07T09:35:47.624Z,20.27
2018-10-07T09:38:16.437Z,20.41
2018-10-07T09:40:45.299Z,20.53
2018-10-07T09:43:14.154Z,20.52
2018-10-07T09:45:43.027Z,20.82
2018-10-07T09:48:11.970Z,20.57
2018-10-07T09:50:40.803Z,20.71
2018-10-07T09:53:09.699Z,20.96
2018-10-07T09:55:38.516Z,21.14
2018-10-07T09:58:07.465Z,21.32
2018-10-07T10:00:40.950Z,21.37
2018-10-07T10:03:11.308Z,21.39
2018-10-07T10:05:40.200Z,21.14
2018-10-07T10:08:09.562Z,21.23
2018-10-07T10:10:38.436Z,21.58
2018-10-07T10:13:07.272Z,22.00
2018-10-07T10:15:36.111Z,22.18
2018-10-07T10:18:09.234Z,22.33
2018-10-07T10:20:45.152Z,22.21
2018-10-07T10:23:20.656Z,22.13
2018-10-07T10:28:02.534Z,22.32
2018-10-07T10:31:08.824Z,21.81
2018-10-07T10:33:42.039Z,21.74
2018-10-07T10:36:19.339Z,21.60
2018-10-07T10:38:54.428Z,21.48
2018-10-07T10:41:26.583Z,21.10
2018-10-07T10:43:58.924Z,20.79
2018-10-07T10:46:32.592Z,20.30
2018-10-07T10:49:41.835Z,20.28
2018-10-07T10:53:20.587Z,20.09
2018-10-07T10:56:26.646Z,19.84
2018-10-07T10:59:08.799Z,19.79
2018-10-07T11:01:50.443Z,19.79
2018-10-07T11:04:25.315Z,19.87
2018-10-07T11:07:32.303Z,19.83
2018-10-07T11:11:10.787Z,19.96
2018-10-07T11:13:48.587Z,19.91
2018-10-07T11:16:28.979Z,19.72
2018-10-07T11:19:06.455Z,19.51
2018-10-07T11:22:12.220Z,19.39
2018-10-07T11:25:05.732Z,19.78
2018-10-07T11:27:44.900Z,20.52
2018-10-07T11:30:23.256Z,21.23
2018-10-07T11:33:00.806Z,21.92
2018-10-07T11:35:45.111Z,22.26
2018-10-07T11:38:22.969Z,22.58
2018-10-07T11:41:02.527Z,22.80
2018-10-07T11:43:36.520Z,22.96
2018-10-07T11:51:01.199Z,22.88
2018-10-07T11:54:00.956Z,22.66
2018-10-07T11:56:29.785Z,22.58
2018-10-07T11:58:58.616Z,22.45
2018-10-07T12:01:27.438Z,22.20
2018-10-07T12:03:56.286Z,22.41
2018-10-07T12:06:25.151Z,22.55
2018-10-07T12:08:53.995Z,22.77
2018-10-07T12:11:22.823Z,22.03
2018-10-07T12:13:51.654Z,22.14
2018-10-07T12:16:20.563Z,22.47
2018-10-07T12:18:49.363Z,23.01
2018-10-07T12:21:18.200Z,23.48
2018-10-07T12:23:47.018Z,23.73
2018-10-07T12:26:15.843Z,23.99
2018-10-07T12:28:44.723Z,24.05
2018-10-07T12:31:13.523Z,23.76
2018-10-07T12:33:42.356Z,23.91
2018-10-07T12:36:11.220Z,24.38
2018-10-07T12:38:40.064Z,24.64
2018-10-07T12:41:08.916Z,24.57
2018-10-07T12:43:37.756Z,24.47
2018-10-07T12:46:06.680Z,24.45
2018-10-07T12:48:35.779Z,23.98
2018-10-07T12:51:04.675Z,24.67
2018-10-07T12:53:33.507Z,25.54
2018-10-07T12:56:02.362Z,26.30
2018-10-07T12:58:31.175Z,27.28
2018-10-07T13:01:00.003Z,27.78
2018-10-07T13:03:28.846Z,28.07
2018-10-07T13:05:57.691Z,27.82
2018-10-07T13:08:26.505Z,26.83
2018-10-07T13:10:55.338Z,27.77
2018-10-07T13:13:24.203Z,27.27
2018-10-07T13:15:53.067Z,27.69
2018-10-07T13:18:21.906Z,25.73
2018-10-07T13:20:50.743Z,25.30
2018-10-07T13:23:19.572Z,24.23
2018-10-07T13:25:48.405Z,24.66
2018-10-07T13:28:17.251Z,24.50
2018-10-07T13:30:46.067Z,24.63
2018-10-07T13:33:14.923Z,24.14
2018-10-07T13:35:43.735Z,24.29
2018-10-07T13:38:12.722Z,24.11
2018-10-07T13:40:41.554Z,23.95
2018-10-07T13:43:10.412Z,23.79
2018-10-07T13:45:39.228Z,24.26
2018-10-07T13:48:08.051Z,23.89
2018-10-07T13:50:36.867Z,24.15
2018-10-07T13:53:05.703Z,24.26
2018-10-07T13:55:34.522Z,23.74
2018-10-07T13:58:03.414Z,23.48
2018-10-07T14:00:32.254Z,24.09
2018-10-07T14:03:01.072Z,23.72
2018-10-07T14:05:29.940Z,24.03
2018-10-07T14:07:58.763Z,24.06
2018-10-07T14:10:27.610Z,23.81
2018-10-07T14:12:56.438Z,23.90
2018-10-07T14:15:25.314Z,23.62
2018-10-07T14:17:54.174Z,23.70
2018-10-07T14:20:23.086Z,23.86
2018-10-07T14:22:51.923Z,23.41
2018-10-07T14:25:20.858Z,23.91
2018-10-07T14:27:50.103Z,23.71
2018-10-07T14:30:18.954Z,24.23
2018-10-07T14:32:48.000Z,24.66
2018-10-07T14:35:16.864Z,24.51
2018-10-07T14:37:45.688Z,24.33
2018-10-07T14:40:14.521Z,24.68
2018-10-07T14:42:43.361Z,24.36
2018-10-07T14:45:12.190Z,24.08
2018-10-07T14:47:41.043Z,23.84
2018-10-07T14:50:09.871Z,24.11
2018-10-07T14:52:38.707Z,24.34
2018-10-07T14:55:07.604Z,24.20
2018-10-07T14:57:36.395Z,24.15
2018-10-07T15:00:05.384Z,23.79
2018-10-07T15:02:34.211Z,24.21
2018-10-07T15:05:03.129Z,23.93
2018-10-07T15:07:32.055Z,24.13
2018-10-07T15:10:00.912Z,23.09
2018-10-07T15:12:29.756Z,23.31
2018-10-07T15:14:58.583Z,23.34
2018-10-07T15:17:27.433Z,23.68
2018-10-07T15:19:56.298Z,23.83
2018-10-07T15:22:25.135Z,23.59
2018-10-07T15:24:53.972Z,23.64
2018-10-07T15:27:22.803Z,23.92
2018-10-07T15:29:51.618Z,23.43
2018-10-07T15:32:20.484Z,23.35
2018-10-07T15:34:49.337Z,23.69
2018-10-07T15:37:18.155Z,23.85
2018-10-07T15:39:47.062Z,24.11
2018-10-07T15:42:15.882Z,24.30
2018-10-07T15:44:44.816Z,24.32
2018-10-07T15:47:13.651Z,24.16
2018-10-07T15:49:42.472Z,23.82
2018-10-07T15:52:11.339Z,23.90
2018-10-07T15:54:40.227Z,23.77
2018-10-07T15:57:09.167Z,23.62
2018-10-07T15:59:38.004Z,23.64
2018-10-07T16:02:06.836Z,23.53
2018-10-07T16:04:35.650Z,23.12
2018-10-07T16:07:04.493Z,22.98
2018-10-07T16:09:33.298Z,22.66
2018-10-07T16:12:02.151Z,22.57
2018-10-07T16:14:31.037Z,22.23
2018-10-07T16:16:59.854Z,22.15
2018-10-07T16:19:28.676Z,22.07
2018-10-07T16:21:57.520Z,21.88
2018-10-07T16:24:26.395Z,21.68
2018-10-07T16:26:55.247Z,21.88
2018-10-07T16:29:24.070Z,21.53
2018-10-07T16:31:52.926Z,21.35
2018-10-07T16:34:21.749Z,20.93
2018-10-07T16:36:50.570Z,20.43
2018-10-07T16:39:19.494Z,20.22
2018-10-07T16:41:48.307Z,19.87
2018-10-07T16:44:17.188Z,19.47
2018-10-07T16:46:46.396Z,19.03
2018-10-07T16:49:15.696Z,18.54
2018-10-07T16:51:44.999Z,18.54
2018-10-07T16:54:14.266Z,18.40
2018-10-07T16:56:43.642Z,18.26
2018-10-07T16:59:12.883Z,18.15
2018-10-07T17:01:42.187Z,18.05
2018-10-07T17:04:11.454Z,17.94
2018-10-07T17:06:40.685Z,18.02
2018-10-07T17:09:10.443Z,18.03
2018-10-07T17:11:39.599Z,17.94
2018-10-07T17:14:08.795Z,17.95
2018-10-07T17:16:38.082Z,17.95
2018-10-07T17:19:07.340Z,17.79
2018-10-07T17:21:37.391Z,17.67
2018-10-07T17:24:06.703Z,17.70
2018-10-07T17:26:36.568Z,17.61
2018-10-07T17:29:05.802Z,17.52
2018-10-07T17:31:35.027Z,17.48
2018-10-07T17:34:04.367Z,17.62
2018-10-07T17:36:33.663Z,17.54
2018-10-07T17:39:03.124Z,17.54
2018-10-07T17:41:31.943Z,17.50
2018-10-07T17:44:00.771Z,17.41
2018-10-07T17:46:29.667Z,17.41
2018-10-07T17:48:58.606Z,17.39
2018-10-07T17:51:27.502Z,17.25
2018-10-07T17:53:56.660Z,17.21
2018-10-07T17:56:25.871Z,17.13
2018-10-07T17:58:55.146Z,17.03
2018-10-07T18:01:24.495Z,17.00
2018-10-07T18:03:53.758Z,16.88
2018-10-07T18:06:22.963Z,16.76
2018-10-07T18:08:52.312Z,16.69
2018-10-07T18:11:21.444Z,16.81
2018-10-07T18:13:50.558Z,16.67
2018-10-07T18:16:19.387Z,16.53
2018-10-07T18:18:48.215Z,16.47
2018-10-07T18:21:17.094Z,16.44
2018-10-07T18:23:45.920Z,16.41
2018-10-07T18:26:14.785Z,16.32
2018-10-07T18:28:43.615Z,16.27
2018-10-07T18:31:12.770Z,16.32
2018-10-07T18:33:42.079Z,16.35
2018-10-07T18:36:11.161Z,16.39
2018-10-07T18:38:40.366Z,16.49
2018-10-07T18:41:09.540Z,16.49
2018-10-07T18:43:38.770Z,16.43
2018-10-07T18:46:08.077Z,16.41
2018-10-07T18:48:37.389Z,16.42
2018-10-07T18:51:06.683Z,16.39
2018-10-07T18:53:35.986Z,16.30
2018-10-07T18:56:05.264Z,16.05
2018-10-07T18:58:34.620Z,16.10
2018-10-07T19:01:04.231Z,15.94
2018-10-07T19:03:33.367Z,15.99
2018-10-07T19:06:02.563Z,15.97
2018-10-07T19:08:31.720Z,15.97
2018-10-07T19:11:01.071Z,16.00
2018-10-07T19:13:30.187Z,15.96
2018-10-07T19:15:59.576Z,15.89
2018-10-07T19:18:28.815Z,15.91
2018-10-07T19:20:58.082Z,15.76
2018-10-07T19:23:27.269Z,15.72
2018-10-07T19:25:56.459Z,15.61
2018-10-07T19:28:25.551Z,15.34
2018-10-07T19:30:54.875Z,15.21
2018-10-07T19:33:24.043Z,15.10
2018-10-07T19:35:53.259Z,15.06
2018-10-07T19:38:22.558Z,15.05
2018-10-07T19:40:51.840Z,15.04
2018-10-07T19:43:21.058Z,14.89
2018-10-07T19:45:50.355Z,14.87
2018-10-07T19:48:19.651Z,14.92
2018-10-07T19:50:48.951Z,14.85
2018-10-07T19:53:18.240Z,15.12
2018-10-07T19:55:47.437Z,15.13
2018-10-07T19:58:16.633Z,14.98
2018-10-07T20:00:45.952Z,14.88
2018-10-07T20:03:15.252Z,14.99
2018-10-07T20:05:44.536Z,15.00
2018-10-07T20:08:13.375Z,14.95
2018-10-07T20:10:42.231Z,14.90
2018-10-07T20:13:11.106Z,15.06
2018-10-07T20:15:40.001Z,14.96
2018-10-07T20:18:09.200Z,14.95
2018-10-07T20:20:38.091Z,15.01
2018-10-07T20:23:07.093Z,15.02
2018-10-07T20:25:36.008Z,14.97
2018-10-07T20:28:04.862Z,15.02
2018-10-07T20:30:33.686Z,14.95
2018-10-07T20:33:02.532Z,14.86
2018-10-07T20:35:31.360Z,14.78
2018-10-07T20:38:00.246Z,14.75
2018-10-07T20:40:29.194Z,14.70
2018-10-07T20:42:57.966Z,14.59
2018-10-07T20:45:26.832Z,14.56
2018-10-07T20:47:55.662Z,14.45
2018-10-07T20:50:25.333Z,14.55
2018-10-07T20:52:53.345Z,14.46
2018-10-07T20:55:22.175Z,14.36
2018-10-07T20:57:51.023Z,14.43
2018-10-07T21:00:19.864Z,14.35
2018-10-07T21:02:48.817Z,14.46
2018-10-07T21:05:17.554Z,14.35
2018-10-07T21:07:46.431Z,14.26
2018-10-07T21:10:15.268Z,14.19
2018-10-07T21:12:44.153Z,14.17
2018-10-07T21:15:13.004Z,14.21
2018-10-07T21:17:41.827Z,14.23
2018-10-07T21:20:10.712Z,14.30
2018-10-07T21:22:39.605Z,14.22
2018-10-07T21:25:08.451Z,14.18
2018-10-07T21:27:37.287Z,14.17
2018-10-07T21:30:06.212Z,14.07
2018-10-07T21:32:35.074Z,14.10
2018-10-07T21:35:03.943Z,14.00
2018-10-07T21:37:32.823Z,13.87
2018-10-07T21:40:01.641Z,14.04
2018-10-07T21:42:30.583Z,14.17
2018-10-07T21:44:59.395Z,14.15
2018-10-07T21:47:28.232Z,14.09
2018-10-07T21:49:57.054Z,14.11
2018-10-07T21:52:25.930Z,14.10
2018-10-07T21:54:54.751Z,14.13
2018-10-07T21:57:23.644Z,14.13
2018-10-07T21:59:52.495Z,14.04
2018-10-07T22:02:21.334Z,14.03
2018-10-07T22:04:50.168Z,14.08
2018-10-07T22:07:19.191Z,13.98
2018-10-07T22:09:48.006Z,13.87
2018-10-07T22:12:16.863Z,14.00
2018-10-07T22:14:45.682Z,13.92
2018-10-07T22:17:14.546Z,14.05
2018-10-07T22:19:43.373Z,13.95
2018-10-07T22:22:12.198Z,13.92
2018-10-07T22:24:41.019Z,13.87
2018-10-07T22:27:09.907Z,13.86
2018-10-07T22:29:38.741Z,13.76
2018-10-07T22:32:07.640Z,13.70
2018-10-07T22:34:36.475Z,13.74
2018-10-07T22:37:05.380Z,13.65
2018-10-07T22:39:34.229Z,13.61
2018-10-07T22:42:03.059Z,13.57
2018-10-07T22:44:31.874Z,13.55
2018-10-07T22:47:00.723Z,13.60
2018-10-07T22:49:29.600Z,13.49
2018-10-07T22:51:58.422Z,13.49
2018-10-07T22:54:27.251Z,13.49
2018-10-07T22:56:56.095Z,13.45
2018-10-07T22:59:24.915Z,13.40
2018-10-07T23:01:53.811Z,13.34
2018-10-07T23:04:22.675Z,13.41
2018-10-07T23:06:51.487Z,13.32
2018-10-07T23:09:20.307Z,13.30
2018-10-07T23:11:49.139Z,13.35
2018-10-07T23:14:17.975Z,13.26
2018-10-07T23:16:46.795Z,13.27
2018-10-07T23:19:15.633Z,13.28
2018-10-07T23:21:44.462Z,13.23
2018-10-07T23:24:13.309Z,13.18
2018-10-07T23:26:42.147Z,13.09
2018-10-07T23:29:10.989Z,13.03
2018-10-07T23:31:39.820Z,13.04
2018-10-07T23:34:08.951Z,13.12
2018-10-07T23:36:37.820Z,13.21
2018-10-07T23:39:09.571Z,13.21
2018-10-07T23:41:38.470Z,13.21
2018-10-07T23:44:07.991Z,13.14
2018-10-07T23:46:36.976Z,12.97
2018-10-07T23:49:05.893Z,12.91
2018-10-07T23:51:35.006Z,12.80
2018-10-07T23:54:03.844Z,12.72
2018-10-07T23:56:32.679Z,12.61
2018-10-07T23:59:01.536Z,12.57
